Main page
METAR-TAF:

METAR-TAF

Airports :

Colmenar Viejo, Spain

latitude: 40-39N, longitude: 003-44W, elevation: -999 m

Current weather observation

The report was made 23 minutes ago, at 13:11 UTC
Wind 7 kt from the East, varying between Northeast and South/Southwest
Temperature 16°C
Humidity 63%
Pressure 1019 hPa
Visibility 10 km or more
Few clouds at a height of 2500 ft, Towering cumulus.
Broken clouds at a height of 3000 ft

METAR: LECV 151311Z 10007KT 050V200 9999 FEW025TCU BKN030 16/09 Q1019

Time: 14:34 (13:34 UTC)

Forecast

The report was made 2 hours and 34 minutes ago, at 11:00 UTC
Forecast valid from 15 at 12 UTC to 15 at 21 UTC
Wind 5 kt from the East/Northeast
Visibility 10 km or more
Broken clouds at a height of 5000 ft
Probability 40% :
Temporary
from 15 at 15 UTC to 15 at 21 UTC
Scattered clouds at a height of 3000 ft, Towering cumulus.
rain showers

TAF: LECV 151100Z 1512/1521 06005KT 9999 BKN050 PROB40 TEMPO 1515/1521 SHRA SCT030TCU

Weather observations and forecasts of more than 4000 airports (METAR and TAF reports).

The available stations are represented by yellow and red dots on the map.

Hover mouse over dot to see the name of the station.

Then click to see weather observations and forecasts.

To change the map : click on the green buttons with a black cross to zoom in, on the green button with a dash to zoom out, or on the green arrows for adjacent maps.


METAR-TAF: